Time;durP1;ratioP1;P1;durP2;ratioP2;P2;SDS_P1;SDS_P2;PMS_P1;PMS_P2;Temp;Humidity;BMP_temperature;BMP_pressure;BME280_temperature;BME280_humidity;BME280_pressure;Samples;Min_cycle;Max_cycle;Signal;HPM_P1;HPM_P2
2021/04/21 00:02:31;;;;;;;17.63;7.75;;;6.10;88.90;;;;;;6202114;28;20085;-78
2021/04/21 00:05:32;;;;;;;9.38;7.88;;;6.00;89.10;;;;;;6200827;28;20082;-77
2021/04/21 00:08:36;;;;;;;12.55;8.32;;;5.90;89.50;;;;;;6200649;28;20578;-78
2021/04/21 00:11:39;;;;;;;10.00;8.10;;;5.80;89.70;;;;;;6201300;28;20050;-77
2021/04/21 00:14:41;;;;;;;9.10;8.10;;;5.80;90.10;;;;;;6201031;28;20054;-78
2021/04/21 00:17:47;;;;;;;9.13;8.00;;;5.80;90.40;;;;;;6201294;28;20050;-78
2021/04/21 00:20:55;;;;;;;7.72;6.72;;;5.70;90.40;;;;;;6201891;28;20129;-78
2021/04/21 00:23:56;;;;;;;14.33;9.00;;;5.70;90.60;;;;;;6201226;28;20132;-78
2021/04/21 00:26:59;;;;;;;13.48;10.20;;;5.60;90.80;;;;;;6201263;28;20046;-77
2021/04/21 00:30:06;;;;;;;16.73;9.45;;;5.60;91.10;;;;;;6201907;28;20508;-76
2021/04/21 00:33:08;;;;;;;10.40;9.23;;;5.50;91.20;;;;;;6200734;28;20054;-78
2021/04/21 00:36:14;;;;;;;11.63;8.60;;;5.50;91.30;;;;;;6200199;28;20088;-77
2021/04/21 00:39:17;;;;;;;12.02;10.75;;;5.50;91.50;;;;;;6200390;28;20093;-78
2021/04/21 00:42:26;;;;;;;14.57;9.45;;;5.40;91.50;;;;;;6200009;28;20138;-78
2021/04/21 00:45:39;;;;;;;8.50;7.57;;;5.40;91.60;;;;;;6200006;28;20042;-78
2021/04/21 00:49:05;;;;;;;9.25;8.10;;;5.30;91.70;;;;;;6201828;28;20129;-78
2021/04/21 00:52:10;;;;;;;10.18;8.90;;;5.30;91.80;;;;;;6203528;28;20070;-78
2021/04/21 00:55:18;;;;;;;11.95;9.75;;;5.20;92.00;;;;;;6203478;28;20061;-78
2021/04/21 00:58:26;;;;;;;11.63;10.32;;;5.20;92.10;;;;;;6216465;28;20137;-77
2021/04/21 01:01:30;;;;;;;14.27;9.48;;;5.20;92.30;;;;;;6223450;28;20423;-77
2021/04/21 01:04:32;;;;;;;10.75;9.65;;;5.20;92.50;;;;;;6223196;28;20049;-77
2021/04/21 01:07:33;;;;;;;12.35;9.40;;;5.20;92.60;;;;;;6223489;28;20124;-77
2021/04/21 01:10:41;;;;;;;11.75;10.52;;;5.20;92.70;;;;;;6224187;28;20046;-77
2021/04/21 01:13:47;;;;;;;10.43;8.73;;;5.20;92.80;;;;;;6222867;28;20073;-77
2021/04/21 01:16:53;;;;;;;10.35;8.93;;;5.10;92.70;;;;;;6223389;28;20064;-77
2021/04/21 01:20:10;;;;;;;13.13;10.27;;;5.10;92.70;;;;;;6223359;28;20113;-78
2021/04/21 01:23:42;;;;;;;11.63;9.82;;;5.00;92.90;;;;;;6222910;28;20088;-78
2021/04/21 01:26:58;;;;;;;12.93;9.63;;;4.90;93.00;;;;;;6223547;28;20049;-77
2021/04/21 01:30:01;;;;;;;11.25;8.90;;;4.90;93.10;;;;;;6222677;28;20420;-75
2021/04/21 01:33:06;;;;;;;12.88;9.57;;;4.90;93.50;;;;;;6222369;28;20129;-78
2021/04/21 01:36:10;;;;;;;9.10;8.02;;;4.90;93.70;;;;;;6223010;28;20065;-75
2021/04/21 01:39:13;;;;;;;15.25;10.07;;;4.90;93.80;;;;;;6223048;28;20081;-78
2021/04/21 01:42:16;;;;;;;10.15;8.70;;;4.80;93.90;;;;;;6222833;28;20076;-78
2021/04/21 01:45:23;;;;;;;13.57;10.30;;;4.80;94.40;;;;;;6222041;28;20129;-77
2021/04/21 01:48:27;;;;;;;13.40;8.57;;;4.70;94.30;;;;;;6222637;28;20521;-77
2021/04/21 01:51:33;;;;;;;9.98;7.90;;;4.70;94.40;;;;;;6222681;28;20062;-78
2021/04/21 01:54:38;;;;;;;11.55;9.82;;;4.70;94.50;;;;;;6222471;28;20088;-77
2021/04/21 01:57:45;;;;;;;13.50;9.75;;;4.60;94.50;;;;;;6222617;28;20462;-77
2021/04/21 02:00:51;;;;;;;10.00;8.93;;;4.60;94.40;;;;;;6222793;28;20120;-78
2021/04/21 02:03:59;;;;;;;12.32;9.45;;;4.50;94.50;;;;;;6222364;28;20499;-78
2021/04/21 02:07:15;;;;;;;13.90;9.93;;;4.50;94.60;;;;;;6222965;28;20488;-77
2021/04/21 02:10:29;;;;;;;13.40;10.60;;;4.50;94.50;;;;;;6222951;28;20056;-77
2021/04/21 02:13:36;;;;;;;11.05;9.30;;;4.40;94.60;;;;;;6221591;28;20080;-77
2021/04/21 02:16:47;;;;;;;13.23;10.95;;;4.40;94.70;;;;;;6223125;28;20128;-78
2021/04/21 02:19:55;;;;;;;12.53;10.37;;;4.40;94.80;;;;;;6222545;28;20041;-78
2021/04/21 02:23:02;;;;;;;11.05;9.82;;;4.50;94.80;;;;;;6222524;28;20050;-78
2021/04/21 02:26:13;;;;;;;11.67;9.83;;;4.40;94.80;;;;;;6222284;28;20041;-77
2021/04/21 02:29:21;;;;;;;11.33;10.00;;;4.30;95.20;;;;;;6222342;28;20451;-77
2021/04/21 02:32:33;;;;;;;12.70;9.27;;;4.30;95.30;;;;;;6222119;28;20046;-77
2021/04/21 02:35:41;;;;;;;10.30;9.17;;;4.20;95.50;;;;;;6221976;28;20185;-77
2021/04/21 02:38:52;;;;;;;14.33;10.37;;;4.30;95.50;;;;;;6222619;28;20717;-77
2021/04/21 02:42:02;;;;;;;9.50;8.50;;;4.20;95.60;;;;;;6225114;28;20519;-78
2021/04/21 02:45:11;;;;;;;13.20;10.90;;;4.20;95.60;;;;;;6226273;28;20411;-78
2021/04/21 02:48:19;;;;;;;11.23;9.50;;;4.20;95.70;;;;;;6226827;28;20045;-77
2021/04/21 02:51:27;;;;;;;12.93;10.95;;;4.20;95.70;;;;;;6227275;28;20092;-77
2021/04/21 02:54:42;;;;;;;17.03;10.20;;;4.20;95.60;;;;;;6226789;28;20045;-78
2021/04/21 02:57:54;;;;;;;16.17;10.93;;;4.10;95.50;;;;;;6226652;28;20073;-77
2021/04/21 03:01:02;;;;;;;13.33;9.63;;;4.10;95.50;;;;;;6226634;28;20152;-77
2021/04/21 03:04:13;;;;;;;14.83;10.27;;;4.00;95.50;;;;;;6226219;28;20041;-77
2021/04/21 03:07:22;;;;;;;12.87;10.40;;;4.00;95.70;;;;;;6227045;28;20049;-77
2021/04/21 03:10:30;;;;;;;13.77;11.57;;;3.90;95.60;;;;;;6226912;28;20133;-77
2021/04/21 03:13:36;;;;;;;15.55;11.23;;;3.80;95.60;;;;;;6226013;28;20149;-77
2021/04/21 03:16:42;;;;;;;13.60;10.53;;;3.70;95.80;;;;;;6226248;28;20049;-77
2021/04/21 03:19:59;;;;;;;13.33;11.30;;;3.70;96.00;;;;;;6226116;28;20155;-77
2021/04/21 03:23:03;;;;;;;12.53;11.03;;;3.70;95.90;;;;;;6226655;28;20081;-78
2021/04/21 03:26:06;;;;;;;13.90;10.67;;;3.60;95.90;;;;;;6225624;28;20048;-78
2021/04/21 03:29:15;;;;;;;12.97;10.03;;;3.60;96.00;;;;;;6225996;28;20129;-78
2021/04/21 03:32:23;;;;;;;14.30;12.80;;;3.60;96.30;;;;;;6226341;28;20041;-77
2021/04/21 03:35:27;;;;;;;12.30;10.13;;;3.50;96.60;;;;;;6225145;28;20100;-77
2021/04/21 03:38:29;;;;;;;15.17;11.37;;;3.50;96.40;;;;;;6225702;28;20494;-77
2021/04/21 03:41:30;;;;;;;14.43;11.93;;;3.40;96.50;;;;;;6225834;28;20041;-77
2021/04/21 03:44:32;;;;;;;16.00;12.13;;;3.40;96.70;;;;;;6225159;28;20045;-77
2021/04/21 03:47:34;;;;;;;12.80;10.77;;;3.40;96.90;;;;;;6225812;28;20077;-78
2021/04/21 03:50:37;;;;;;;16.27;12.90;;;3.40;96.90;;;;;;6226231;28;20045;-77
2021/04/21 03:53:40;;;;;;;18.53;12.40;;;3.40;97.20;;;;;;6223452;28;20108;-78
2021/04/21 03:56:44;;;;;;;15.97;12.43;;;3.40;97.40;;;;;;6225306;28;20151;-77
2021/04/21 03:59:47;;;;;;;16.43;13.07;;;3.50;97.40;;;;;;6225739;28;20052;-78
2021/04/21 04:02:52;;;;;;;15.33;12.03;;;3.50;97.50;;;;;;6225932;28;20053;-78
2021/04/21 04:06:02;;;;;;;16.17;12.33;;;3.50;97.40;;;;;;6225349;28;20130;-78
2021/04/21 04:09:05;;;;;;;14.57;11.93;;;3.50;97.60;;;;;;6225431;28;20218;-78
2021/04/21 04:12:09;;;;;;;23.90;14.27;;;3.50;97.70;;;;;;6225312;28;20042;-77
2021/04/21 04:15:14;;;;;;;16.93;13.80;;;3.50;98.00;;;;;;6224885;28;20078;-78
2021/04/21 04:18:16;;;;;;;18.73;14.43;;;3.50;98.10;;;;;;6225086;28;20563;-77
2021/04/21 04:21:20;;;;;;;14.77;11.63;;;3.60;98.60;;;;;;6223690;28;20462;-78
2021/04/21 04:24:23;;;;;;;13.30;11.90;;;3.60;98.10;;;;;;6223735;28;20129;-76
2021/04/21 04:27:25;;;;;;;16.03;13.03;;;3.50;97.70;;;;;;6224804;28;20077;-78
2021/04/21 04:30:27;;;;;;;16.97;11.60;;;3.30;97.70;;;;;;6227364;28;20045;-76
2021/04/21 04:33:30;;;;;;;14.00;12.00;;;3.30;97.70;;;;;;6225802;28;20149;-77
2021/04/21 04:36:33;;;;;;;17.53;13.57;;;3.20;97.60;;;;;;6224452;28;20042;-77
2021/04/21 04:39:36;;;;;;;21.00;14.83;;;3.30;97.60;;;;;;6224075;28;20141;-77
2021/04/21 04:42:38;;;;;;;16.47;13.67;;;3.30;97.50;;;;;;6224889;28;20065;-76
2021/04/21 04:45:41;;;;;;;19.57;12.53;;;3.30;97.40;;;;;;6223432;28;20136;-77
2021/04/21 04:48:46;;;;;;;16.30;13.23;;;3.40;97.50;;;;;;6223897;28;20444;-77
2021/04/21 04:51:53;;;;;;;20.00;13.30;;;3.50;97.10;;;;;;6224174;28;20129;-77
2021/04/21 04:54:55;;;;;;;15.90;11.40;;;3.70;98.90;;;;;;6224029;28;20132;-77
2021/04/21 04:57:58;;;;;;;14.40;11.33;;;3.80;98.40;;;;;;6223814;28;20042;-77
2021/04/21 05:01:04;;;;;;;13.70;11.30;;;3.70;96.80;;;;;;6223827;28;20132;-77
2021/04/21 05:04:08;;;;;;;14.43;12.10;;;3.70;96.70;;;;;;6222997;28;20045;-77
2021/04/21 05:07:15;;;;;;;16.30;11.83;;;3.80;96.50;;;;;;6218432;28;20064;-77
2021/04/21 05:10:18;;;;;;;15.87;12.00;;;4.00;96.30;;;;;;6197469;28;20050;-77
2021/04/21 05:13:22;;;;;;;14.50;11.80;;;4.10;96.00;;;;;;6197590;28;20578;-77
2021/04/21 05:17:15;;;;;;;15.90;10.63;;;4.20;95.70;;;;;;6198379;28;20567;-76
2021/04/21 05:20:55;;;;;;;20.93;11.37;;;4.40;95.50;;;;;;6198193;28;20104;-77
2021/04/21 05:24:39;;;;;;;13.03;10.77;;;4.60;95.30;;;;;;6197851;28;20076;-77
2021/04/21 05:28:17;;;;;;;30.20;13.15;;;5.00;96.10;;;;;;6197774;28;20133;-76
2021/04/21 05:32:05;;;;;;;20.30;14.38;;;5.20;95.00;;;;;;6198790;28;20141;-77
2021/04/21 05:35:49;;;;;;;21.13;12.20;;;5.40;94.60;;;;;;6197903;28;20047;-78
2021/04/21 05:39:22;;;;;;;14.30;11.48;;;5.60;94.20;;;;;;6198059;28;20081;-77
2021/04/21 05:42:57;;;;;;;16.55;12.43;;;5.80;93.80;;;;;;6198620;28;20053;-77
2021/04/21 05:47:02;;;;;;;23.17;16.20;;;6.20;93.90;;;;;;6166846;28;20133;-76
2021/04/21 05:50:36;;;;;;;14.75;10.15;;;6.50;93.70;;;;;;6127150;29;20128;-77
2021/04/21 05:54:16;;;;;;;15.27;11.43;;;7.00;92.90;;;;;;6120059;28;20150;-78
2021/04/21 05:57:43;;;;;;;13.75;11.40;;;7.30;92.00;;;;;;6198435;28;20125;-77
2021/04/21 06:01:18;;;;;;;15.82;11.27;;;7.60;91.60;;;;;;6200329;28;20085;-76
2021/04/21 06:04:22;;;;;;;19.23;12.48;;;8.00;90.90;;;;;;6201664;28;20049;-77
2021/04/21 06:07:26;;;;;;;13.13;11.40;;;8.20;90.20;;;;;;6201297;28;20046;-76
2021/04/21 06:10:29;;;;;;;20.70;14.93;;;8.40;89.90;;;;;;6217147;28;20058;-77
2021/04/21 06:13:32;;;;;;;22.77;15.35;;;8.60;90.10;;;;;;6223044;28;20056;-78
2021/04/21 06:16:36;;;;;;;17.08;14.30;;;8.90;89.90;;;;;;6223623;28;20066;-78
2021/04/21 06:19:38;;;;;;;19.02;15.07;;;9.20;89.00;;;;;;6225017;28;20415;-78
2021/04/21 06:22:39;;;;;;;18.10;14.73;;;9.40;87.90;;;;;;6231117;28;20570;-78
2021/04/21 06:25:44;;;;;;;15.30;13.50;;;9.70;86.50;;;;;;6225709;28;20041;-77
2021/04/21 06:29:01;;;;;;;19.92;13.65;;;10.00;85.10;;;;;;6223854;28;20401;-77
2021/04/21 06:32:04;;;;;;;17.67;12.48;;;10.30;83.00;;;;;;6222208;28;20581;-78
2021/04/21 06:35:09;;;;;;;16.80;12.45;;;10.60;81.40;;;;;;6223922;28;20049;-78
2021/04/21 06:38:11;;;;;;;16.33;12.82;;;10.90;79.80;;;;;;6221671;28;20050;-77
2021/04/21 06:41:13;;;;;;;18.63;14.55;;;11.10;78.30;;;;;;6221559;28;20125;-77
2021/04/21 06:44:14;;;;;;;19.02;13.52;;;11.40;76.80;;;;;;6220489;28;20192;-77
2021/04/21 06:47:20;;;;;;;13.45;10.85;;;11.60;75.90;;;;;;6221628;28;20050;-78
2021/04/21 06:50:29;;;;;;;19.63;15.82;;;11.80;74.90;;;;;;6197415;28;20131;-78
2021/04/21 06:53:30;;;;;;;16.42;13.80;;;12.00;74.20;;;;;;6196354;28;20057;-78
2021/04/21 06:56:34;;;;;;;18.65;13.82;;;12.20;73.00;;;;;;6197507;28;20070;-78
2021/04/21 06:59:35;;;;;;;13.23;11.48;;;12.30;71.90;;;;;;6197868;28;20050;-78
2021/04/21 07:02:38;;;;;;;17.08;13.30;;;12.30;71.90;;;;;;6197961;28;20137;-78
2021/04/21 07:05:42;;;;;;;18.05;14.63;;;12.70;70.80;;;;;;6197869;28;20076;-78
2021/04/21 07:08:44;;;;;;;16.50;13.75;;;12.90;69.80;;;;;;6198936;28;20050;-77
2021/04/21 07:11:55;;;;;;;18.75;13.52;;;13.10;69.30;;;;;;6215045;28;20073;-78
2021/04/21 07:14:57;;;;;;;14.98;12.27;;;13.40;67.50;;;;;;6221226;28;20046;-78
2021/04/21 07:17:58;;;;;;;20.52;14.02;;;13.70;66.50;;;;;;6221427;28;20412;-78
2021/04/21 07:21:02;;;;;;;23.23;12.55;;;13.90;65.80;;;;;;6222370;28;20562;-78
2021/04/21 07:24:05;;;;;;;12.13;10.90;;;14.10;65.00;;;;;;6222387;28;20107;-78
2021/04/21 07:27:11;;;;;;;19.55;13.23;;;14.20;65.00;;;;;;6224619;28;20081;-78
2021/04/21 07:30:13;;;;;;;23.90;16.33;;;14.50;64.20;;;;;;6227934;28;20050;-78
2021/04/21 07:33:32;;;;;;;21.17;15.43;;;14.70;63.30;;;;;;6227682;28;20050;-78
2021/04/21 07:36:44;;;;;;;18.90;13.60;;;15.00;62.70;;;;;;6227219;28;20125;-78
2021/04/21 07:39:46;;;;;;;17.88;15.80;;;15.20;61.70;;;;;;6228210;28;20046;-78
2021/04/21 07:42:47;;;;;;;26.35;13.88;;;15.40;60.60;;;;;;6225284;28;20079;-78
2021/04/21 07:45:54;;;;;;;19.40;15.18;;;15.50;59.60;;;;;;6224476;28;20192;-77
2021/04/21 07:48:56;;;;;;;24.13;16.92;;;15.80;58.90;;;;;;6225602;28;20577;-78
2021/04/21 07:51:59;;;;;;;21.20;13.02;;;16.00;57.80;;;;;;6226119;28;20069;-77
2021/04/21 07:55:09;;;;;;;17.40;15.20;;;16.20;57.00;;;;;;6224288;28;20527;-78
2021/04/21 07:58:10;;;;;;;19.35;13.20;;;16.50;56.30;;;;;;6225608;28;20072;-77
2021/04/21 08:01:12;;;;;;;22.98;13.93;;;16.70;55.90;;;;;;6225591;28;20093;-78
2021/04/21 08:04:18;;;;;;;13.10;11.52;;;16.90;54.60;;;;;;6224185;28;20073;-77
2021/04/21 08:07:32;;;;;;;15.45;12.98;;;16.90;55.10;;;;;;6225111;28;20104;-78
2021/04/21 08:10:35;;;;;;;14.70;13.20;;;17.30;55.00;;;;;;6226333;28;20062;-78
2021/04/21 08:13:41;;;;;;;15.55;12.20;;;17.30;54.30;;;;;;6224603;28;20115;-78
2021/04/21 08:16:42;;;;;;;18.15;13.18;;;17.40;55.10;;;;;;6225370;28;20121;-78
2021/04/21 08:19:45;;;;;;;18.33;13.60;;;17.80;53.70;;;;;;6224507;28;20466;-78
2021/04/21 08:22:55;;;;;;;18.35;12.55;;;18.10;53.40;;;;;;6226148;28;20136;-78
2021/04/21 08:25:56;;;;;;;19.13;14.40;;;18.30;52.30;;;;;;6224173;28;20072;-78
2021/04/21 08:28:59;;;;;;;14.73;12.68;;;18.30;51.40;;;;;;6225256;28;20068;-77
2021/04/21 08:32:01;;;;;;;21.42;13.45;;;18.30;51.90;;;;;;6225849;28;20087;-78
2021/04/21 08:35:02;;;;;;;29.40;12.73;;;18.50;51.50;;;;;;6225046;28;20129;-77
2021/04/21 08:38:04;;;;;;;14.07;12.60;;;18.70;50.80;;;;;;6223446;28;20061;-78
2021/04/21 08:41:06;;;;;;;20.17;14.15;;;18.90;49.60;;;;;;6225338;28;20069;-78
2021/04/21 08:44:08;;;;;;;16.10;12.23;;;19.00;49.80;;;;;;6229650;28;20133;-78
2021/04/21 08:47:14;;;;;;;14.52;12.27;;;19.00;49.70;;;;;;6229510;28;20053;-79
2021/04/21 08:50:16;;;;;;;19.17;11.77;;;18.90;49.70;;;;;;6228900;28;20045;-78
2021/04/21 08:53:21;;;;;;;13.70;12.30;;;19.20;49.20;;;;;;6228470;28;20577;-78
2021/04/21 08:56:24;;;;;;;15.73;12.23;;;19.50;49.10;;;;;;6230077;28;20050;-76
2021/04/21 08:59:25;;;;;;;17.25;12.43;;;19.60;47.60;;;;;;6229859;28;20193;-78
2021/04/21 09:02:27;;;;;;;16.08;13.57;;;19.60;48.10;;;;;;6230155;28;20050;-78
2021/04/21 09:05:29;;;;;;;16.00;13.52;;;19.70;47.90;;;;;;6224206;28;20132;-78
2021/04/21 09:08:32;;;;;;;19.17;12.20;;;20.00;47.30;;;;;;6224896;28;20069;-78
2021/04/21 09:11:34;;;;;;;16.17;12.75;;;20.20;46.50;;;;;;6221741;28;20136;-78
2021/04/21 09:14:35;;;;;;;19.95;13.52;;;20.40;46.40;;;;;;6222745;28;20137;-79
2021/04/21 09:17:43;;;;;;;17.40;12.43;;;20.60;46.10;;;;;;6223145;28;20046;-78
2021/04/21 09:20:45;;;;;;;16.67;12.52;;;20.80;45.50;;;;;;6225061;28;20124;-79
2021/04/21 09:23:47;;;;;;;15.05;13.23;;;20.80;45.00;;;;;;6230668;28;20057;-79
2021/04/21 09:26:48;;;;;;;21.08;11.93;;;20.90;45.40;;;;;;6232682;28;20054;-79
2021/04/21 09:29:50;;;;;;;18.85;13.15;;;21.10;44.20;;;;;;6232542;28;20053;-80
2021/04/21 09:32:54;;;;;;;16.48;12.75;;;21.20;43.80;;;;;;6228767;28;20073;-79
2021/04/21 09:35:57;;;;;;;14.82;12.00;;;21.30;43.60;;;;;;6229249;28;20048;-78
2021/04/21 09:39:08;;;;;;;17.50;12.20;;;21.40;43.60;;;;;;6226826;28;20113;-78
2021/04/21 09:42:10;;;;;;;18.25;13.43;;;21.70;42.20;;;;;;6227089;28;20056;-79
2021/04/21 09:45:12;;;;;;;13.88;12.02;;;21.60;42.30;;;;;;6231602;28;20053;-79
2021/04/21 09:48:15;;;;;;;17.08;12.05;;;21.80;42.40;;;;;;6231807;28;20038;-79
2021/04/21 09:51:18;;;;;;;12.95;11.57;;;21.80;42.10;;;;;;6231930;28;20069;-80
2021/04/21 09:54:29;;;;;;;15.65;11.45;;;21.90;41.90;;;;;;6231019;28;20132;-79
2021/04/21 09:57:33;;;;;;;15.93;12.00;;;21.90;41.60;;;;;;6230621;28;20096;-79
2021/04/21 10:00:39;;;;;;;14.85;10.13;;;21.90;41.20;;;;;;6232085;28;20045;-80
2021/04/21 10:03:40;;;;;;;15.50;11.88;;;21.90;40.60;;;;;;6231590;28;20050;-80
2021/04/21 10:06:44;;;;;;;12.00;10.32;;;21.90;40.70;;;;;;6230789;28;20049;-80
2021/04/21 10:09:47;;;;;;;11.68;9.77;;;22.00;40.40;;;;;;6229033;28;20049;-79
2021/04/21 10:12:49;;;;;;;14.05;9.35;;;22.10;40.60;;;;;;6221029;28;20066;-79
2021/04/21 10:15:50;;;;;;;16.70;10.05;;;22.20;40.00;;;;;;6227999;28;20046;-79
2021/04/21 10:18:52;;;;;;;18.90;10.07;;;22.20;39.70;;;;;;6230362;28;20086;-79
2021/04/21 10:21:54;;;;;;;12.98;9.07;;;22.40;39.80;;;;;;6230709;28;20046;-79
2021/04/21 10:24:56;;;;;;;11.80;10.25;;;22.50;39.00;;;;;;6229180;28;20046;-79
2021/04/21 10:27:59;;;;;;;13.43;10.70;;;22.40;38.50;;;;;;6229440;28;20057;-79
2021/04/21 10:31:02;;;;;;;15.73;10.27;;;22.30;38.70;;;;;;6229721;28;20123;-76
2021/04/21 10:34:05;;;;;;;13.25;9.77;;;22.30;39.60;;;;;;6227424;28;20133;-78
2021/04/21 10:37:09;;;;;;;13.85;8.45;;;22.00;37.10;;;;;;6228128;28;20069;-78
2021/04/21 10:40:22;;;;;;;11.23;8.95;;;21.60;37.40;;;;;;6229604;28;20065;-79
2021/04/21 10:43:39;;;;;;;12.13;9.07;;;21.70;37.90;;;;;;6229254;28;20111;-79
2021/04/21 10:47:01;;;;;;;11.98;8.70;;;21.90;38.70;;;;;;6230401;28;20104;-79
2021/04/21 10:50:04;;;;;;;11.68;9.27;;;22.30;38.90;;;;;;6230195;28;20627;-79
2021/04/21 10:53:06;;;;;;;9.50;8.02;;;22.80;37.70;;;;;;6230142;28;20049;-79
2021/04/21 10:56:20;;;;;;;9.43;8.20;;;23.20;36.70;;;;;;6228123;28;20128;-78
2021/04/21 10:59:22;;;;;;;9.82;7.90;;;23.50;36.40;;;;;;6228051;28;20463;-79
2021/04/21 11:02:43;;;;;;;9.40;7.28;;;23.70;34.90;;;;;;6230678;28;20069;-80
2021/04/21 11:05:47;;;;;;;6.93;6.22;;;23.90;33.60;;;;;;6233733;28;20038;-78
2021/04/21 11:08:55;;;;;;;8.75;7.85;;;24.10;32.50;;;;;;6234973;28;20050;-79
2021/04/21 11:11:57;;;;;;;8.55;6.85;;;24.30;32.50;;;;;;6236074;28;20053;-79
2021/04/21 11:15:00;;;;;;;6.85;5.53;;;24.50;31.70;;;;;;6215925;28;20129;-79
2021/04/21 11:18:35;;;;;;;7.15;5.65;;;24.70;31.80;;;;;;6209810;28;20046;-81
2021/04/21 11:21:36;;;;;;;8.25;5.25;;;24.90;31.20;;;;;;6212117;28;20077;-79
2021/04/21 11:24:38;;;;;;;8.73;7.60;;;25.10;30.00;;;;;;6209140;28;20050;-77
2021/04/21 11:27:44;;;;;;;6.50;4.97;;;25.20;30.80;;;;;;6210044;28;20082;-78
2021/04/21 11:30:55;;;;;;;6.90;6.15;;;25.30;30.20;;;;;;6209297;28;20489;-79
2021/04/21 11:33:57;;;;;;;9.65;6.38;;;25.40;30.00;;;;;;6213727;28;20112;-79
2021/04/21 11:37:00;;;;;;;10.10;9.05;;;25.40;30.20;;;;;;6207443;28;20133;-78
2021/04/21 11:40:05;;;;;;;7.50;6.03;;;25.40;30.50;;;;;;6207466;28;20053;-79
2021/04/21 11:43:15;;;;;;;5.88;5.18;;;25.70;29.90;;;;;;6211587;28;20046;-79
2021/04/21 11:46:57;;;;;;;5.40;4.82;;;25.70;29.90;;;;;;6205893;28;20046;-79
2021/04/21 11:50:10;;;;;;;6.57;4.82;;;25.70;29.50;;;;;;6210245;28;20074;-80
2021/04/21 11:53:13;;;;;;;5.35;4.85;;;25.50;29.60;;;;;;6208176;28;20419;-80
2021/04/21 11:56:15;;;;;;;5.72;5.15;;;25.70;28.90;;;;;;6206964;28;20073;-80
2021/04/21 11:59:17;;;;;;;4.15;3.75;;;25.90;28.70;;;;;;6210418;28;20520;-79
2021/04/21 12:02:18;;;;;;;6.65;5.97;;;26.00;28.40;;;;;;6209337;28;20081;-79
2021/04/21 12:05:29;;;;;;;10.77;6.70;;;26.00;29.10;;;;;;6209254;28;20065;-79
2021/04/21 12:08:33;;;;;;;7.63;4.50;;;26.00;28.50;;;;;;6211418;28;20058;-79
2021/04/21 12:11:35;;;;;;;5.78;5.18;;;25.70;28.20;;;;;;6209433;28;20406;-79
2021/04/21 12:14:37;;;;;;;5.30;4.68;;;25.60;29.00;;;;;;6210000;28;20049;-79
2021/04/21 12:17:56;;;;;;;5.65;4.85;;;25.70;29.00;;;;;;6213712;28;20217;-79
2021/04/21 12:20:57;;;;;;;4.43;4.03;;;25.90;28.10;;;;;;6212240;28;20088;-78
2021/04/21 12:24:01;;;;;;;4.90;4.40;;;25.90;28.40;;;;;;6211259;28;20066;-79
2021/04/21 12:27:02;;;;;;;5.28;4.78;;;25.80;28.30;;;;;;6211155;28;20070;-80
2021/04/21 12:30:15;;;;;;;5.22;4.72;;;26.00;27.50;;;;;;6211653;28;20047;-78
2021/04/21 12:33:16;;;;;;;6.53;5.05;;;26.10;27.60;;;;;;6211142;28;20070;-79
2021/04/21 12:36:19;;;;;;;4.85;4.35;;;26.20;28.40;;;;;;6210681;28;20077;-78
2021/04/21 12:39:22;;;;;;;13.27;9.30;;;26.30;28.40;;;;;;6191154;28;628000;-79
2021/04/21 12:42:23;;;;;;;10.05;5.47;;;26.30;28.30;;;;;;6211398;28;20060;-79
2021/04/21 12:45:27;;;;;;;7.72;5.07;;;26.30;27.70;;;;;;6211983;28;20109;-79
2021/04/21 12:48:28;;;;;;;4.80;4.13;;;26.20;27.60;;;;;;6209027;28;20547;-79
2021/04/21 12:51:30;;;;;;;6.55;4.95;;;26.20;27.30;;;;;;6206641;28;20090;-79
2021/04/21 12:54:34;;;;;;;5.50;5.00;;;26.30;27.20;;;;;;6211404;28;20054;-78
2021/04/21 12:57:47;;;;;;;5.40;4.10;;;26.40;27.20;;;;;;6210939;28;20081;-79
2021/04/21 13:01:06;;;;;;;5.90;4.78;;;25.90;27.40;;;;;;6210348;28;20428;-79
2021/04/21 13:04:11;;;;;;;5.80;5.05;;;25.30;28.30;;;;;;6206411;28;20050;-78
2021/04/21 13:07:17;;;;;;;6.57;5.82;;;25.00;28.00;;;;;;6206295;28;20042;-78
2021/04/21 13:10:18;;;;;;;5.38;4.82;;;25.20;27.90;;;;;;6205539;28;20053;-78
2021/04/21 13:13:25;;;;;;;6.47;5.22;;;25.10;27.50;;;;;;6213223;28;20081;-78
2021/04/21 13:16:28;;;;;;;6.40;5.35;;;25.00;27.50;;;;;;6216654;28;20050;-78
2021/04/21 13:19:31;;;;;;;6.63;6.00;;;25.00;27.30;;;;;;6207287;28;20058;-79
2021/04/21 13:22:32;;;;;;;4.30;3.90;;;25.20;27.20;;;;;;6205643;28;20061;-79
2021/04/21 13:25:34;;;;;;;7.80;5.20;;;25.20;27.40;;;;;;6204275;28;20125;-78
2021/04/21 13:28:38;;;;;;;5.90;5.30;;;25.30;27.90;;;;;;6205286;28;20050;-78
2021/04/21 13:31:40;;;;;;;6.75;4.32;;;25.30;27.70;;;;;;6206688;28;20050;-78
2021/04/21 13:34:43;;;;;;;11.65;6.65;;;25.30;28.30;;;;;;6205444;28;20065;-77
2021/04/21 13:37:44;;;;;;;5.85;5.35;;;25.50;28.20;;;;;;6205836;28;20062;-78
2021/04/21 13:40:46;;;;;;;8.40;4.95;;;25.60;28.30;;;;;;6228018;28;20070;-77
2021/04/21 13:43:47;;;;;;;5.22;4.57;;;25.70;27.90;;;;;;6229407;28;20034;-79
2021/04/21 13:46:50;;;;;;;6.35;4.63;;;25.70;28.00;;;;;;6230443;28;20038;-78
2021/04/21 13:49:51;;;;;;;7.40;5.80;;;25.70;28.30;;;;;;6229869;28;20034;-79
2021/04/21 13:52:53;;;;;;;7.82;5.75;;;25.60;26.80;;;;;;6229617;28;20042;-78
2021/04/21 13:55:55;;;;;;;6.28;4.53;;;25.00;28.40;;;;;;6229189;28;20041;-78
2021/04/21 13:58:56;;;;;;;9.27;5.88;;;24.60;29.30;;;;;;6228425;28;20081;-78
2021/04/21 14:01:58;;;;;;;8.93;5.07;;;24.80;30.00;;;;;;6228619;28;20042;-78
2021/04/21 14:04:59;;;;;;;10.15;7.40;;;25.20;29.60;;;;;;6210129;28;20054;-78
2021/04/21 14:08:01;;;;;;;8.20;7.13;;;25.40;29.50;;;;;;6205186;28;20046;-78
2021/04/21 14:11:02;;;;;;;7.00;5.50;;;25.50;29.40;;;;;;6208284;28;20489;-78
2021/04/21 14:14:04;;;;;;;8.05;6.63;;;25.60;29.10;;;;;;6219138;28;20072;-78
2021/04/21 14:17:06;;;;;;;8.45;5.95;;;25.70;29.40;;;;;;6215761;28;20127;-78
2021/04/21 14:20:11;;;;;;;7.03;5.25;;;25.80;29.00;;;;;;6207427;28;20065;-77
2021/04/21 14:23:12;;;;;;;6.68;5.75;;;25.80;28.90;;;;;;6206562;28;20112;-77
2021/04/21 14:26:13;;;;;;;6.70;5.30;;;25.80;28.60;;;;;;6207766;28;20066;-77
2021/04/21 14:29:15;;;;;;;8.23;6.30;;;25.70;28.90;;;;;;6209193;28;20054;-78
2021/04/21 14:32:17;;;;;;;7.30;6.45;;;25.60;28.40;;;;;;6209197;28;20066;-77
2021/04/21 14:35:19;;;;;;;5.85;5.35;;;25.00;28.50;;;;;;6208218;28;20056;-78
2021/04/21 14:38:21;;;;;;;9.07;6.63;;;24.60;29.30;;;;;;6212038;28;20092;-78
2021/04/21 14:41:23;;;;;;;5.38;4.88;;;24.70;29.30;;;;;;6213755;28;20059;-77
2021/04/21 14:44:24;;;;;;;8.63;6.15;;;24.80;29.20;;;;;;6212011;28;20133;-77
2021/04/21 14:47:26;;;;;;;8.02;5.45;;;25.00;29.30;;;;;;6212273;28;20047;-77
2021/04/21 14:50:28;;;;;;;5.63;5.07;;;25.10;29.30;;;;;;6213926;28;20081;-78
2021/04/21 14:53:29;;;;;;;8.70;5.35;;;25.00;29.40;;;;;;6214092;28;20057;-77
2021/04/21 14:56:34;;;;;;;8.88;5.10;;;25.00;30.10;;;;;;6213850;28;20070;-78
2021/04/21 14:59:35;;;;;;;5.93;4.95;;;25.20;29.70;;;;;;6210947;28;20464;-77
2021/04/21 15:02:38;;;;;;;7.38;6.18;;;25.20;29.30;;;;;;6211401;28;20096;-77
2021/04/21 15:05:39;;;;;;;4.97;4.47;;;25.20;28.80;;;;;;6211024;28;20057;-78
2021/04/21 15:08:40;;;;;;;4.90;4.40;;;25.00;28.90;;;;;;6211280;28;20053;-78
2021/04/21 15:11:42;;;;;;;9.48;4.80;;;25.00;28.90;;;;;;6210113;28;20081;-77
2021/04/21 15:14:44;;;;;;;5.00;4.50;;;25.00;29.40;;;;;;6208751;28;20084;-78
2021/04/21 15:17:47;;;;;;;5.28;4.35;;;24.80;29.70;;;;;;6216684;28;20149;-78
2021/04/21 15:20:49;;;;;;;5.03;4.53;;;24.70;29.90;;;;;;6207324;28;20098;-78
2021/04/21 15:23:51;;;;;;;7.35;5.15;;;24.60;29.80;;;;;;6205152;28;20680;-78
2021/04/21 15:26:52;;;;;;;8.20;4.78;;;24.40;29.30;;;;;;6205641;28;20581;-78
2021/04/21 15:29:54;;;;;;;5.18;4.68;;;24.20;29.30;;;;;;6204553;28;20416;-77
2021/04/21 15:32:57;;;;;;;5.60;4.75;;;23.90;29.60;;;;;;6207216;28;20590;-79
2021/04/21 15:35:58;;;;;;;11.82;8.45;;;23.80;30.00;;;;;;6207387;28;20046;-79
2021/04/21 15:39:00;;;;;;;4.95;4.38;;;23.60;30.00;;;;;;6210385;28;20488;-78
2021/04/21 15:42:01;;;;;;;5.75;4.55;;;23.50;30.60;;;;;;6212821;28;20093;-77
2021/04/21 15:45:04;;;;;;;6.70;4.28;;;23.40;30.00;;;;;;6213618;28;20136;-78
2021/04/21 15:48:07;;;;;;;5.57;4.63;;;23.10;30.00;;;;;;6213098;28;20129;-79
2021/04/21 15:51:09;;;;;;;6.80;4.32;;;22.80;30.50;;;;;;6219660;28;20061;-77
2021/04/21 15:54:10;;;;;;;7.30;4.20;;;22.50;31.40;;;;;;6218740;28;20050;-79
2021/04/21 15:57:13;;;;;;;6.18;4.45;;;22.30;32.00;;;;;;6212400;28;20125;-79
2021/04/21 16:00:16;;;;;;;5.82;4.97;;;22.00;32.70;;;;;;6211980;28;20049;-77